sensor_id;sensor_type;location;lat;lon;timestamp;pressure;altitude;pressure_sealevel;temperature
24639;BMP180;1641;51.306;12.384;2023-04-06T00:01:44;100574.00;;;6.60
24639;BMP180;1641;51.306;12.384;2023-04-06T00:04:09;100579.00;;;6.40
24639;BMP180;1641;51.306;12.384;2023-04-06T00:06:35;100576.00;;;6.30
24639;BMP180;1641;51.306;12.384;2023-04-06T00:09:00;100578.00;;;6.40
24639;BMP180;1641;51.306;12.384;2023-04-06T00:11:26;100577.00;;;6.60
24639;BMP180;1641;51.306;12.384;2023-04-06T00:13:51;100592.00;;;6.80
24639;BMP180;1641;51.306;12.384;2023-04-06T00:16:17;100583.00;;;6.60
24639;BMP180;1641;51.306;12.384;2023-04-06T00:18:42;100575.00;;;6.40
24639;BMP180;1641;51.306;12.384;2023-04-06T00:21:07;100561.00;;;6.30
24639;BMP180;1641;51.306;12.384;2023-04-06T00:23:33;100544.00;;;6.50
24639;BMP180;1641;51.306;12.384;2023-04-06T00:25:58;100575.00;;;6.80
24639;BMP180;1641;51.306;12.384;2023-04-06T00:28:23;100555.00;;;6.80
24639;BMP180;1641;51.306;12.384;2023-04-06T00:30:52;100572.00;;;6.80
24639;BMP180;1641;51.306;12.384;2023-04-06T00:33:19;100579.00;;;6.60
24639;BMP180;1641;51.306;12.384;2023-04-06T00:35:44;100567.00;;;6.30
24639;BMP180;1641;51.306;12.384;2023-04-06T00:38:11;100572.00;;;6.60
24639;BMP180;1641;51.306;12.384;2023-04-06T00:40:37;100558.00;;;6.50
24639;BMP180;1641;51.306;12.384;2023-04-06T00:43:02;100555.00;;;6.60
24639;BMP180;1641;51.306;12.384;2023-04-06T00:45:30;100560.00;;;6.10
24639;BMP180;1641;51.306;12.384;2023-04-06T00:47:56;100523.00;;;6.00
24639;BMP180;1641;51.306;12.384;2023-04-06T00:50:24;100555.00;;;6.10
24639;BMP180;1641;51.306;12.384;2023-04-06T00:52:49;100553.00;;;6.50
24639;BMP180;1641;51.306;12.384;2023-04-06T00:55:15;100536.00;;;6.40
24639;BMP180;1641;51.306;12.384;2023-04-06T00:57:40;100554.00;;;5.90
24639;BMP180;1641;51.306;12.384;2023-04-06T01:00:06;100547.00;;;6.00
24639;BMP180;1641;51.306;12.384;2023-04-06T01:02:32;100548.00;;;5.80
24639;BMP180;1641;51.306;12.384;2023-04-06T01:04:57;100557.00;;;6.00
24639;BMP180;1641;51.306;12.384;2023-04-06T01:07:22;100550.00;;;6.20
24639;BMP180;1641;51.306;12.384;2023-04-06T01:09:47;100542.00;;;5.70
24639;BMP180;1641;51.306;12.384;2023-04-06T01:12:16;100546.00;;;5.40
24639;BMP180;1641;51.306;12.384;2023-04-06T01:14:41;100548.00;;;5.50
24639;BMP180;1641;51.306;12.384;2023-04-06T01:17:07;100543.00;;;5.80
24639;BMP180;1641;51.306;12.384;2023-04-06T01:19:32;100545.00;;;5.90
24639;BMP180;1641;51.306;12.384;2023-04-06T01:21:57;100542.00;;;5.90
24639;BMP180;1641;51.306;12.384;2023-04-06T01:24:26;100542.00;;;6.30
24639;BMP180;1641;51.306;12.384;2023-04-06T01:26:51;100536.00;;;6.20
24639;BMP180;1641;51.306;12.384;2023-04-06T01:29:16;100540.00;;;6.20
24639;BMP180;1641;51.306;12.384;2023-04-06T01:31:41;100540.00;;;6.00
24639;BMP180;1641;51.306;12.384;2023-04-06T01:34:07;100525.00;;;5.80
24639;BMP180;1641;51.306;12.384;2023-04-06T01:36:32;100538.00;;;5.50
24639;BMP180;1641;51.306;12.384;2023-04-06T01:38:57;100495.00;;;5.30
24639;BMP180;1641;51.306;12.384;2023-04-06T01:41:23;100524.00;;;4.80
24639;BMP180;1641;51.306;12.384;2023-04-06T01:43:48;100496.00;;;4.80
24639;BMP180;1641;51.306;12.384;2023-04-06T01:46:15;100530.00;;;4.80
24639;BMP180;1641;51.306;12.384;2023-04-06T01:48:41;100528.00;;;5.50
24639;BMP180;1641;51.306;12.384;2023-04-06T01:51:06;100522.00;;;5.70
24639;BMP180;1641;51.306;12.384;2023-04-06T01:53:37;100526.00;;;5.30
24639;BMP180;1641;51.306;12.384;2023-04-06T01:56:03;100525.00;;;5.20
24639;BMP180;1641;51.306;12.384;2023-04-06T01:58:31;100531.00;;;5.40
24639;BMP180;1641;51.306;12.384;2023-04-06T02:00:56;100496.00;;;5.20
24639;BMP180;1641;51.306;12.384;2023-04-06T02:03:21;100518.00;;;5.50
24639;BMP180;1641;51.306;12.384;2023-04-06T02:05:47;100521.00;;;5.80
24639;BMP180;1641;51.306;12.384;2023-04-06T02:08:12;100520.00;;;5.80
24639;BMP180;1641;51.306;12.384;2023-04-06T02:10:37;100527.00;;;5.60
24639;BMP180;1641;51.306;12.384;2023-04-06T02:13:02;100519.00;;;5.40
24639;BMP180;1641;51.306;12.384;2023-04-06T02:15:28;100516.00;;;5.70
24639;BMP180;1641;51.306;12.384;2023-04-06T02:17:53;100512.00;;;5.20
24639;BMP180;1641;51.306;12.384;2023-04-06T02:20:21;100471.00;;;5.10
24639;BMP180;1641;51.306;12.384;2023-04-06T02:22:47;100481.00;;;5.00
24639;BMP180;1641;51.306;12.384;2023-04-06T02:25:12;100507.00;;;4.80
24639;BMP180;1641;51.306;12.384;2023-04-06T02:27:38;100513.00;;;5.10
24639;BMP180;1641;51.306;12.384;2023-04-06T02:30:03;100490.00;;;5.10
24639;BMP180;1641;51.306;12.384;2023-04-06T02:32:29;100477.00;;;5.50
24639;BMP180;1641;51.306;12.384;2023-04-06T02:34:54;100513.00;;;5.60
24639;BMP180;1641;51.306;12.384;2023-04-06T02:37:22;100491.00;;;5.90
24639;BMP180;1641;51.306;12.384;2023-04-06T02:39:49;100500.00;;;6.10
24639;BMP180;1641;51.306;12.384;2023-04-06T02:42:14;100498.00;;;5.80
24639;BMP180;1641;51.306;12.384;2023-04-06T02:44:41;100511.00;;;5.50
24639;BMP180;1641;51.306;12.384;2023-04-06T02:47:06;100510.00;;;5.40
24639;BMP180;1641;51.306;12.384;2023-04-06T02:49:31;100499.00;;;5.60
24639;BMP180;1641;51.306;12.384;2023-04-06T02:51:57;100509.00;;;6.10
24639;BMP180;1641;51.306;12.384;2023-04-06T02:54:22;100477.00;;;6.20
24639;BMP180;1641;51.306;12.384;2023-04-06T02:56:47;100458.00;;;5.90
24639;BMP180;1641;51.306;12.384;2023-04-06T02:59:12;100511.00;;;5.70
24639;BMP180;1641;51.306;12.384;2023-04-06T03:01:38;100498.00;;;5.60
24639;BMP180;1641;51.306;12.384;2023-04-06T03:04:03;100520.00;;;5.90
24639;BMP180;1641;51.306;12.384;2023-04-06T03:06:28;100517.00;;;5.80
24639;BMP180;1641;51.306;12.384;2023-04-06T03:08:53;100485.00;;;6.10
24639;BMP180;1641;51.306;12.384;2023-04-06T03:11:18;100516.00;;;6.20
24639;BMP180;1641;51.306;12.384;2023-04-06T03:13:44;100517.00;;;6.20
24639;BMP180;1641;51.306;12.384;2023-04-06T03:16:09;100519.00;;;6.20
24639;BMP180;1641;51.306;12.384;2023-04-06T03:18:34;100498.00;;;6.00
24639;BMP180;1641;51.306;12.384;2023-04-06T03:21:00;100515.00;;;6.20
24639;BMP180;1641;51.306;12.384;2023-04-06T03:23:26;100466.00;;;6.20
24639;BMP180;1641;51.306;12.384;2023-04-06T03:25:51;100509.00;;;6.00
24639;BMP180;1641;51.306;12.384;2023-04-06T03:28:16;100506.00;;;6.00
24639;BMP180;1641;51.306;12.384;2023-04-06T03:30:41;100513.00;;;5.90
24639;BMP180;1641;51.306;12.384;2023-04-06T03:33:07;100494.00;;;5.80
24639;BMP180;1641;51.306;12.384;2023-04-06T03:35:32;100478.00;;;5.80
24639;BMP180;1641;51.306;12.384;2023-04-06T03:37:57;100499.00;;;5.70
24639;BMP180;1641;51.306;12.384;2023-04-06T03:40:22;100506.00;;;5.90
24639;BMP180;1641;51.306;12.384;2023-04-06T03:42:48;100515.00;;;5.70
24639;BMP180;1641;51.306;12.384;2023-04-06T03:45:13;100515.00;;;5.70
24639;BMP180;1641;51.306;12.384;2023-04-06T03:47:39;100511.00;;;5.80
24639;BMP180;1641;51.306;12.384;2023-04-06T03:50:04;100511.00;;;5.80
24639;BMP180;1641;51.306;12.384;2023-04-06T03:52:30;100510.00;;;5.60
24639;BMP180;1641;51.306;12.384;2023-04-06T03:54:55;100513.00;;;5.50
24639;BMP180;1641;51.306;12.384;2023-04-06T03:57:20;100515.00;;;5.50
24639;BMP180;1641;51.306;12.384;2023-04-06T03:59:45;100516.00;;;5.50
24639;BMP180;1641;51.306;12.384;2023-04-06T04:02:11;100514.00;;;5.30
24639;BMP180;1641;51.306;12.384;2023-04-06T04:04:36;100512.00;;;5.50
24639;BMP180;1641;51.306;12.384;2023-04-06T04:07:01;100526.00;;;5.60
24639;BMP180;1641;51.306;12.384;2023-04-06T04:09:26;100523.00;;;5.80
24639;BMP180;1641;51.306;12.384;2023-04-06T04:11:52;100531.00;;;5.70
24639;BMP180;1641;51.306;12.384;2023-04-06T04:14:17;100528.00;;;5.50
24639;BMP180;1641;51.306;12.384;2023-04-06T04:16:42;100511.00;;;5.10
24639;BMP180;1641;51.306;12.384;2023-04-06T04:19:07;100516.00;;;5.30
24639;BMP180;1641;51.306;12.384;2023-04-06T04:21:33;100530.00;;;5.10
24639;BMP180;1641;51.306;12.384;2023-04-06T04:23:58;100533.00;;;5.20
24639;BMP180;1641;51.306;12.384;2023-04-06T04:26:23;100533.00;;;5.10
24639;BMP180;1641;51.306;12.384;2023-04-06T04:28:49;100515.00;;;4.90
24639;BMP180;1641;51.306;12.384;2023-04-06T04:31:15;100521.00;;;5.00
24639;BMP180;1641;51.306;12.384;2023-04-06T04:33:43;100483.00;;;5.30
24639;BMP180;1641;51.306;12.384;2023-04-06T04:36:08;100538.00;;;5.30
24639;BMP180;1641;51.306;12.384;2023-04-06T04:38:35;100525.00;;;5.10
24639;BMP180;1641;51.306;12.384;2023-04-06T04:41:00;100483.00;;;5.20
24639;BMP180;1641;51.306;12.384;2023-04-06T04:43:25;100549.00;;;5.20
24639;BMP180;1641;51.306;12.384;2023-04-06T04:45:51;100547.00;;;5.20
24639;BMP180;1641;51.306;12.384;2023-04-06T04:48:17;100506.00;;;5.30
24639;BMP180;1641;51.306;12.384;2023-04-06T04:50:42;100546.00;;;5.40
24639;BMP180;1641;51.306;12.384;2023-04-06T04:53:07;100544.00;;;5.60
24639;BMP180;1641;51.306;12.384;2023-04-06T04:55:33;100526.00;;;5.60
24639;BMP180;1641;51.306;12.384;2023-04-06T04:57:58;100518.00;;;5.50
24639;BMP180;1641;51.306;12.384;2023-04-06T05:00:23;100546.00;;;5.30
24639;BMP180;1641;51.306;12.384;2023-04-06T05:02:49;100511.00;;;5.40
24639;BMP180;1641;51.306;12.384;2023-04-06T05:05:14;100541.00;;;5.60
24639;BMP180;1641;51.306;12.384;2023-04-06T05:07:40;100544.00;;;5.60
24639;BMP180;1641;51.306;12.384;2023-04-06T05:10:05;100542.00;;;5.60
24639;BMP180;1641;51.306;12.384;2023-04-06T05:12:31;100551.00;;;5.40
24639;BMP180;1641;51.306;12.384;2023-04-06T05:14:56;100519.00;;;5.60
24639;BMP180;1641;51.306;12.384;2023-04-06T05:17:21;100555.00;;;5.80
24639;BMP180;1641;51.306;12.384;2023-04-06T05:19:47;100543.00;;;5.60
24639;BMP180;1641;51.306;12.384;2023-04-06T05:22:12;100545.00;;;5.70
24639;BMP180;1641;51.306;12.384;2023-04-06T05:24:41;100554.00;;;5.80
24639;BMP180;1641;51.306;12.384;2023-04-06T05:27:06;100514.00;;;6.10
24639;BMP180;1641;51.306;12.384;2023-04-06T05:29:31;100543.00;;;6.20
24639;BMP180;1641;51.306;12.384;2023-04-06T05:31:57;100542.00;;;6.20
24639;BMP180;1641;51.306;12.384;2023-04-06T05:34:22;100505.00;;;5.90
24639;BMP180;1641;51.306;12.384;2023-04-06T05:36:48;100551.00;;;6.10
24639;BMP180;1641;51.306;12.384;2023-04-06T05:39:13;100442.00;;;6.50
24639;BMP180;1641;51.306;12.384;2023-04-06T05:41:38;100560.00;;;6.60
24639;BMP180;1641;51.306;12.384;2023-04-06T05:44:04;100526.00;;;6.50
24639;BMP180;1641;51.306;12.384;2023-04-06T05:46:29;100558.00;;;6.80
24639;BMP180;1641;51.306;12.384;2023-04-06T05:48:55;100553.00;;;6.60
24639;BMP180;1641;51.306;12.384;2023-04-06T05:51:20;100549.00;;;6.50
24639;BMP180;1641;51.306;12.384;2023-04-06T05:53:46;100563.00;;;6.70
24639;BMP180;1641;51.306;12.384;2023-04-06T05:56:11;100562.00;;;7.00
24639;BMP180;1641;51.306;12.384;2023-04-06T05:58:36;100558.00;;;6.80
24639;BMP180;1641;51.306;12.384;2023-04-06T06:01:02;100528.00;;;7.00
24639;BMP180;1641;51.306;12.384;2023-04-06T06:03:28;100559.00;;;7.00
24639;BMP180;1641;51.306;12.384;2023-04-06T06:05:59;100543.00;;;7.00
24639;BMP180;1641;51.306;12.384;2023-04-06T06:08:25;100561.00;;;7.40
24639;BMP180;1641;51.306;12.384;2023-04-06T06:10:50;100552.00;;;7.30
24639;BMP180;1641;51.306;12.384;2023-04-06T06:13:15;100558.00;;;7.60
24639;BMP180;1641;51.306;12.384;2023-04-06T06:15:41;100528.00;;;8.00
24639;BMP180;1641;51.306;12.384;2023-04-06T06:18:06;100555.00;;;9.10
24639;BMP180;1641;51.306;12.384;2023-04-06T06:20:31;100564.00;;;9.50
24639;BMP180;1641;51.306;12.384;2023-04-06T06:22:56;100566.00;;;10.10
24639;BMP180;1641;51.306;12.384;2023-04-06T06:25:22;100573.00;;;11.20
24639;BMP180;1641;51.306;12.384;2023-04-06T06:27:47;100551.00;;;11.80
24639;BMP180;1641;51.306;12.384;2023-04-06T06:30:13;100550.00;;;12.20
24639;BMP180;1641;51.306;12.384;2023-04-06T06:32:38;100563.00;;;11.10
24639;BMP180;1641;51.306;12.384;2023-04-06T06:35:03;100563.00;;;10.70
24639;BMP180;1641;51.306;12.384;2023-04-06T06:37:29;100567.00;;;10.50
24639;BMP180;1641;51.306;12.384;2023-04-06T06:39:54;100565.00;;;10.80
24639;BMP180;1641;51.306;12.384;2023-04-06T06:42:19;100568.00;;;11.80
24639;BMP180;1641;51.306;12.384;2023-04-06T06:44:45;100542.00;;;12.80
24639;BMP180;1641;51.306;12.384;2023-04-06T06:47:10;100533.00;;;13.30
24639;BMP180;1641;51.306;12.384;2023-04-06T06:49:35;100575.00;;;14.20
24639;BMP180;1641;51.306;12.384;2023-04-06T06:52:01;100580.00;;;14.60
24639;BMP180;1641;51.306;12.384;2023-04-06T06:54:26;100541.00;;;15.40
24639;BMP180;1641;51.306;12.384;2023-04-06T06:56:51;100520.00;;;14.20
24639;BMP180;1641;51.306;12.384;2023-04-06T06:59:17;100528.00;;;14.10
24639;BMP180;1641;51.306;12.384;2023-04-06T07:01:42;100571.00;;;14.80
24639;BMP180;1641;51.306;12.384;2023-04-06T07:04:07;100574.00;;;15.00
24639;BMP180;1641;51.306;12.384;2023-04-06T07:06:35;100519.00;;;13.20
24639;BMP180;1641;51.306;12.384;2023-04-06T07:09:00;100592.00;;;13.40
24639;BMP180;1641;51.306;12.384;2023-04-06T07:11:26;100578.00;;;14.30
24639;BMP180;1641;51.306;12.384;2023-04-06T07:13:51;100540.00;;;13.90
24639;BMP180;1641;51.306;12.384;2023-04-06T07:16:16;100583.00;;;14.50
24639;BMP180;1641;51.306;12.384;2023-04-06T07:18:41;100576.00;;;16.30
24639;BMP180;1641;51.306;12.384;2023-04-06T07:21:07;100581.00;;;14.00
24639;BMP180;1641;51.306;12.384;2023-04-06T07:23:32;100571.00;;;13.70
24639;BMP180;1641;51.306;12.384;2023-04-06T07:25:57;100574.00;;;14.60
24639;BMP180;1641;51.306;12.384;2023-04-06T07:28:23;100592.00;;;15.00
24639;BMP180;1641;51.306;12.384;2023-04-06T07:30:48;100577.00;;;15.00
24639;BMP180;1641;51.306;12.384;2023-04-06T07:33:13;100581.00;;;15.40
24639;BMP180;1641;51.306;12.384;2023-04-06T07:35:38;100588.00;;;16.50
24639;BMP180;1641;51.306;12.384;2023-04-06T07:38:04;100576.00;;;15.80
24639;BMP180;1641;51.306;12.384;2023-04-06T07:40:30;100595.00;;;16.70
24639;BMP180;1641;51.306;12.384;2023-04-06T07:42:56;100545.00;;;16.30
24639;BMP180;1641;51.306;12.384;2023-04-06T07:45:22;100537.00;;;16.30
24639;BMP180;1641;51.306;12.384;2023-04-06T07:47:47;100563.00;;;16.80
24639;BMP180;1641;51.306;12.384;2023-04-06T07:50:12;100556.00;;;17.40
24639;BMP180;1641;51.306;12.384;2023-04-06T07:52:38;100582.00;;;17.40
24639;BMP180;1641;51.306;12.384;2023-04-06T07:55:04;100556.00;;;17.60
24639;BMP180;1641;51.306;12.384;2023-04-06T07:57:29;100539.00;;;18.20
24639;BMP180;1641;51.306;12.384;2023-04-06T07:59:55;100545.00;;;17.30
24639;BMP180;1641;51.306;12.384;2023-04-06T08:02:20;100588.00;;;18.40
24639;BMP180;1641;51.306;12.384;2023-04-06T08:04:45;100576.00;;;17.90
24639;BMP180;1641;51.306;12.384;2023-04-06T08:07:10;100582.00;;;18.40
24639;BMP180;1641;51.306;12.384;2023-04-06T08:09:36;100576.00;;;19.20
24639;BMP180;1641;51.306;12.384;2023-04-06T08:12:01;100582.00;;;18.40
24639;BMP180;1641;51.306;12.384;2023-04-06T08:14:26;100591.00;;;18.60
24639;BMP180;1641;51.306;12.384;2023-04-06T08:16:52;100587.00;;;17.80
24639;BMP180;1641;51.306;12.384;2023-04-06T08:19:17;100604.00;;;17.30
24639;BMP180;1641;51.306;12.384;2023-04-06T08:21:44;100590.00;;;17.90
24639;BMP180;1641;51.306;12.384;2023-04-06T08:24:10;100603.00;;;18.30
24639;BMP180;1641;51.306;12.384;2023-04-06T08:26:36;100593.00;;;17.80
24639;BMP180;1641;51.306;12.384;2023-04-06T08:29:01;100561.00;;;19.20
24639;BMP180;1641;51.306;12.384;2023-04-06T08:31:26;100577.00;;;19.40
24639;BMP180;1641;51.306;12.384;2023-04-06T08:33:52;100590.00;;;18.50
24639;BMP180;1641;51.306;12.384;2023-04-06T08:36:17;100594.00;;;19.50
24639;BMP180;1641;51.306;12.384;2023-04-06T08:38:47;100581.00;;;19.10
24639;BMP180;1641;51.306;12.384;2023-04-06T08:41:14;100590.00;;;20.90
24639;BMP180;1641;51.306;12.384;2023-04-06T08:43:58;100589.00;;;19.90
24639;BMP180;1641;51.306;12.384;2023-04-06T08:46:24;100582.00;;;18.60
24639;BMP180;1641;51.306;12.384;2023-04-06T08:48:56;100598.00;;;18.50
24639;BMP180;1641;51.306;12.384;2023-04-06T08:51:23;100594.00;;;19.00
24639;BMP180;1641;51.306;12.384;2023-04-06T08:53:52;100571.00;;;18.90
24639;BMP180;1641;51.306;12.384;2023-04-06T08:56:19;100601.00;;;20.00
24639;BMP180;1641;51.306;12.384;2023-04-06T08:58:46;100564.00;;;20.40
24639;BMP180;1641;51.306;12.384;2023-04-06T09:01:12;100548.00;;;18.10
24639;BMP180;1641;51.306;12.384;2023-04-06T09:03:39;100598.00;;;20.00
24639;BMP180;1641;51.306;12.384;2023-04-06T09:06:06;100561.00;;;20.50
24639;BMP180;1641;51.306;12.384;2023-04-06T09:08:35;100577.00;;;20.30
24639;BMP180;1641;51.306;12.384;2023-04-06T09:11:02;100590.00;;;20.40
24639;BMP180;1641;51.306;12.384;2023-04-06T09:13:28;100555.00;;;19.20
24639;BMP180;1641;51.306;12.384;2023-04-06T09:16:04;100602.00;;;18.70
24639;BMP180;1641;51.306;12.384;2023-04-06T09:18:33;100590.00;;;20.30
24639;BMP180;1641;51.306;12.384;2023-04-06T09:21:08;100542.00;;;19.90
24639;BMP180;1641;51.306;12.384;2023-04-06T09:23:34;100567.00;;;21.30
24639;BMP180;1641;51.306;12.384;2023-04-06T09:26:13;100579.00;;;19.50
24639;BMP180;1641;51.306;12.384;2023-04-06T09:28:47;100589.00;;;18.30
24639;BMP180;1641;51.306;12.384;2023-04-06T09:31:21;100581.00;;;19.50
24639;BMP180;1641;51.306;12.384;2023-04-06T09:33:47;100552.00;;;18.60
24639;BMP180;1641;51.306;12.384;2023-04-06T09:36:12;100572.00;;;18.80
24639;BMP180;1641;51.306;12.384;2023-04-06T09:39:02;100576.00;;;19.50
24639;BMP180;1641;51.306;12.384;2023-04-06T09:41:36;100542.00;;;19.40
24639;BMP180;1641;51.306;12.384;2023-04-06T09:44:09;100545.00;;;18.60
24639;BMP180;1641;51.306;12.384;2023-04-06T09:46:38;100575.00;;;17.80
24639;BMP180;1641;51.306;12.384;2023-04-06T09:49:05;100569.00;;;16.00
24639;BMP180;1641;51.306;12.384;2023-04-06T09:51:55;100540.00;;;17.00
24639;BMP180;1641;51.306;12.384;2023-04-06T09:54:22;100520.00;;;17.50
24639;BMP180;1641;51.306;12.384;2023-04-06T09:57:50;100568.00;;;16.30
24639;BMP180;1641;51.306;12.384;2023-04-06T09:59:48;100573.00;;;14.70
24639;BMP180;1641;51.306;12.384;2023-04-06T10:02:25;100573.00;;;14.10
24639;BMP180;1641;51.306;12.384;2023-04-06T10:04:57;100578.00;;;13.50
24639;BMP180;1641;51.306;12.384;2023-04-06T10:07:23;100556.00;;;13.10
24639;BMP180;1641;51.306;12.384;2023-04-06T10:09:49;100570.00;;;13.10
24639;BMP180;1641;51.306;12.384;2023-04-06T10:12:20;100576.00;;;12.50
24639;BMP180;1641;51.306;12.384;2023-04-06T10:14:46;100577.00;;;13.50
24639;BMP180;1641;51.306;12.384;2023-04-06T10:17:12;100539.00;;;12.40
24639;BMP180;1641;51.306;12.384;2023-04-06T10:22:41;100576.00;;;13.00
24639;BMP180;1641;51.306;12.384;2023-04-06T10:25:17;100574.00;;;13.60
24639;BMP180;1641;51.306;12.384;2023-04-06T10:27:59;100565.00;;;13.60
24639;BMP180;1641;51.306;12.384;2023-04-06T10:30:24;100546.00;;;13.40
24639;BMP180;1641;51.306;12.384;2023-04-06T10:32:56;100559.00;;;13.60
24639;BMP180;1641;51.306;12.384;2023-04-06T10:35:37;100565.00;;;13.40
24639;BMP180;1641;51.306;12.384;2023-04-06T10:38:20;100557.00;;;13.30
24639;BMP180;1641;51.306;12.384;2023-04-06T10:40:50;100525.00;;;13.50
24639;BMP180;1641;51.306;12.384;2023-04-06T10:43:20;100536.00;;;13.00
24639;BMP180;1641;51.306;12.384;2023-04-06T10:46:03;100543.00;;;13.00
24639;BMP180;1641;51.306;12.384;2023-04-06T10:48:45;100530.00;;;13.10
24639;BMP180;1641;51.306;12.384;2023-04-06T10:51:13;100552.00;;;12.90
24639;BMP180;1641;51.306;12.384;2023-04-06T10:53:42;100530.00;;;13.10
24639;BMP180;1641;51.306;12.384;2023-04-06T10:56:13;100546.00;;;12.50
24639;BMP180;1641;51.306;12.384;2023-04-06T10:58:49;100543.00;;;12.10
24639;BMP180;1641;51.306;12.384;2023-04-06T11:01:19;100540.00;;;11.20
24639;BMP180;1641;51.306;12.384;2023-04-06T11:03:54;100538.00;;;11.70
24639;BMP180;1641;51.306;12.384;2023-04-06T11:06:25;100536.00;;;12.10
24639;BMP180;1641;51.306;12.384;2023-04-06T11:08:52;100533.00;;;12.20
24639;BMP180;1641;51.306;12.384;2023-04-06T11:11:19;100530.00;;;12.40
24639;BMP180;1641;51.306;12.384;2023-04-06T11:13:53;100471.00;;;12.60
24639;BMP180;1641;51.306;12.384;2023-04-06T11:16:26;100498.00;;;12.60
24639;BMP180;1641;51.306;12.384;2023-04-06T11:18:57;100488.00;;;12.60
24639;BMP180;1641;51.306;12.384;2023-04-06T11:26:41;100519.00;;;12.80
24639;BMP180;1641;51.306;12.384;2023-04-06T11:29:11;100496.00;;;12.80
24639;BMP180;1641;51.306;12.384;2023-04-06T11:31:45;100509.00;;;12.60
24639;BMP180;1641;51.306;12.384;2023-04-06T11:34:19;100499.00;;;12.10
24639;BMP180;1641;51.306;12.384;2023-04-06T11:36:46;100515.00;;;12.80
24639;BMP180;1641;51.306;12.384;2023-04-06T11:39:23;100508.00;;;12.90
24639;BMP180;1641;51.306;12.384;2023-04-06T11:41:53;100509.00;;;12.80
24639;BMP180;1641;51.306;12.384;2023-04-06T11:46:57;100505.00;;;12.10
24639;BMP180;1641;51.306;12.384;2023-04-06T11:49:29;100504.00;;;12.10
24639;BMP180;1641;51.306;12.384;2023-04-06T11:51:59;100515.00;;;12.40
24639;BMP180;1641;51.306;12.384;2023-04-06T11:54:32;100478.00;;;12.40
24639;BMP180;1641;51.306;12.384;2023-04-06T11:57:02;100476.00;;;12.80
24639;BMP180;1641;51.306;12.384;2023-04-06T11:59:28;100496.00;;;13.40
24639;BMP180;1641;51.306;12.384;2023-04-06T12:01:53;100461.00;;;13.40
24639;BMP180;1641;51.306;12.384;2023-04-06T12:04:19;100492.00;;;13.50
24639;BMP180;1641;51.306;12.384;2023-04-06T12:06:45;100490.00;;;13.40
24639;BMP180;1641;51.306;12.384;2023-04-06T12:09:13;100476.00;;;13.50
24639;BMP180;1641;51.306;12.384;2023-04-06T12:11:41;100477.00;;;13.30
24639;BMP180;1641;51.306;12.384;2023-04-06T12:14:21;100433.00;;;13.20
24639;BMP180;1641;51.306;12.384;2023-04-06T12:16:46;100478.00;;;13.10
24639;BMP180;1641;51.306;12.384;2023-04-06T12:19:11;100475.00;;;12.90
24639;BMP180;1641;51.306;12.384;2023-04-06T12:21:37;100470.00;;;12.50
24639;BMP180;1641;51.306;12.384;2023-04-06T12:24:06;100478.00;;;12.60
24639;BMP180;1641;51.306;12.384;2023-04-06T12:26:37;100471.00;;;11.80
24639;BMP180;1641;51.306;12.384;2023-04-06T12:29:09;100465.00;;;12.30
24639;BMP180;1641;51.306;12.384;2023-04-06T12:31:37;100472.00;;;12.80
24639;BMP180;1641;51.306;12.384;2023-04-06T12:34:08;100442.00;;;12.80
24639;BMP180;1641;51.306;12.384;2023-04-06T12:36:33;100433.00;;;12.50
24639;BMP180;1641;51.306;12.384;2023-04-06T12:39:07;100450.00;;;12.10
24639;BMP180;1641;51.306;12.384;2023-04-06T12:41:33;100452.00;;;12.40
24639;BMP180;1641;51.306;12.384;2023-04-06T12:43:59;100453.00;;;12.60
24639;BMP180;1641;51.306;12.384;2023-04-06T12:46:24;100443.00;;;13.10
24639;BMP180;1641;51.306;12.384;2023-04-06T12:49:02;100450.00;;;13.60
24639;BMP180;1641;51.306;12.384;2023-04-06T12:51:34;100420.00;;;12.70
24639;BMP180;1641;51.306;12.384;2023-04-06T12:53:59;100450.00;;;12.40
24639;BMP180;1641;51.306;12.384;2023-04-06T12:56:24;100450.00;;;12.50
24639;BMP180;1641;51.306;12.384;2023-04-06T12:58:51;100446.00;;;12.20
24639;BMP180;1641;51.306;12.384;2023-04-06T13:01:16;100370.00;;;12.60
24639;BMP180;1641;51.306;12.384;2023-04-06T13:03:45;100444.00;;;12.90
24639;BMP180;1641;51.306;12.384;2023-04-06T13:06:22;100436.00;;;12.40
24639;BMP180;1641;51.306;12.384;2023-04-06T13:08:48;100444.00;;;12.60
24639;BMP180;1641;51.306;12.384;2023-04-06T13:11:18;100387.00;;;12.00
24639;BMP180;1641;51.306;12.384;2023-04-06T13:13:45;100438.00;;;12.20
24639;BMP180;1641;51.306;12.384;2023-04-06T13:16:10;100412.00;;;12.70
24639;BMP180;1641;51.306;12.384;2023-04-06T13:18:36;100439.00;;;13.20
24639;BMP180;1641;51.306;12.384;2023-04-06T13:21:12;100438.00;;;13.50
24639;BMP180;1641;51.306;12.384;2023-04-06T13:23:42;100427.00;;;13.30
24639;BMP180;1641;51.306;12.384;2023-04-06T13:26:07;100431.00;;;13.20
24639;BMP180;1641;51.306;12.384;2023-04-06T13:28:36;100430.00;;;13.30
24639;BMP180;1641;51.306;12.384;2023-04-06T13:31:05;100437.00;;;12.60
24639;BMP180;1641;51.306;12.384;2023-04-06T13:33:37;100379.00;;;12.50
24639;BMP180;1641;51.306;12.384;2023-04-06T13:36:07;100431.00;;;12.80
24639;BMP180;1641;51.306;12.384;2023-04-06T13:38:33;100425.00;;;12.90
24639;BMP180;1641;51.306;12.384;2023-04-06T13:40:59;100434.00;;;12.80
24639;BMP180;1641;51.306;12.384;2023-04-06T13:43:24;100423.00;;;12.40
24639;BMP180;1641;51.306;12.384;2023-04-06T13:45:53;100389.00;;;12.90
24639;BMP180;1641;51.306;12.384;2023-04-06T13:48:23;100421.00;;;13.00
24639;BMP180;1641;51.306;12.384;2023-04-06T13:50:55;100416.00;;;13.00
24639;BMP180;1641;51.306;12.384;2023-04-06T13:53:20;100420.00;;;13.50
24639;BMP180;1641;51.306;12.384;2023-04-06T13:55:53;100367.00;;;13.50
24639;BMP180;1641;51.306;12.384;2023-04-06T13:58:18;100416.00;;;13.00
24639;BMP180;1641;51.306;12.384;2023-04-06T14:00:43;100389.00;;;13.20
24639;BMP180;1641;51.306;12.384;2023-04-06T14:03:09;100406.00;;;13.70
24639;BMP180;1641;51.306;12.384;2023-04-06T14:05:38;100406.00;;;14.40
24639;BMP180;1641;51.306;12.384;2023-04-06T14:08:03;100406.00;;;13.60
24639;BMP180;1641;51.306;12.384;2023-04-06T14:10:29;100395.00;;;13.50
24639;BMP180;1641;51.306;12.384;2023-04-06T14:13:00;100380.00;;;14.20